Relevés horaires Bouveret (Suisse)


Relevés horaires à Bouveret - Mardi 01 Sept. 2015
Heure UTC1 Température [°C] Vent [km/h] Hum. [%] Pres.4 [hPa] Visi. [Km] Nébu. [octa] Préc.5 [mm] Cond.
2m. Res. Ros. Dir.2 Vit. Moy. Raf.3
23:00 17.0 15.8 13.6 ONO 27.8 27.8 35.2 80 1018.2(-0.3/3h) -- -- -- --
22:00 17.0 17.0 15.4 S 1.9 7.4 11.1 90 1018.3(-0.4/3h) -- -- -- --
21:00 17.0 17.0 14.7 SSE 5.6 24.1 31.5 86 1018.3(0.3/3h) -- -- -- --
20:00 18.0 18.0 14.2 ONO 5.6 11.1 14.8 78 1018.3(1.0/3h) -- -- -- --
19:00 17.0 17.0 15.2 OSO 9.3 24.1 31.5 89 1018.7(1.7/3h) -- -- -- --
18:00 17.7 16.9 16.2 N 24.1 24.1 31.5 91 1017.8(1.5/3h) -- -- -- --
17:00 18.7 18.5 16.0 N 16.7 22.2 27.8 84 1017.1(1.6/3h) -- -- -- --
16:00 19.8 19.6 15.5 ONO 24.1 24.1 27.8 76 1016.5(1.6/3h) -- -- -- --
15:00 19.6 19.6 16.4 SE 3.7 14.8 22.2 82 1016(2.3/3h) -- -- -- --
14:00 20.4 20.4 16.4 N 3.7 11.1 13.0 78 1015.2(1.9/3h) -- -- -- --
13:00 20.7 20.7 16.9 S 5.6 13.0 22.2 79 1014.6(1.6/3h) -- -- -- --
12:00 22.7 22.7 15.7 SSE 5.6 14.8 22.2 65 1013.1(0.4/3h) -- -- -- --
11:00 22.7 22.7 15.9 SSE 13.0 13.0 22.2 65 1012.9(0.8/3h) -- -- -- --
10:00 22.9 22.9 15.7 SE 7.4 7.4 11.1 64 1012.6(0.9/3h) -- -- -- --
09:00 23.4 23.4 15.8 ENE 1.9 14.8 20.4 62 1012.5(2.2/3h) -- -- -- --
08:00 22.6 22.6 17.1 SSE 3.7 7.4 9.3 71 1012(2.6/3h) -- -- -- --
07:00 22.6 22.6 16.4 NE 7.4 14.8 20.4 68 1011.7(1.0/3h) -- -- -- --
06:00 22.8 22.8 16.7 O 9.3 24.1 38.9 68 1010.3(-1.5/3h) -- -- -- --
05:00 21.0 21.0 15.1 S 18.5 24.1 38.9 69 1009.6(-3.1/3h) -- -- -- --
04:00 19.5 19.5 15.3 SE 7.4 11.1 14.8 77 1011.2(-1.4/3h) -- -- -- --
03:00 20.1 20.1 15.6 SE 9.3 9.3 13.0 75 1012.3(-0.7/3h) -- -- -- --
02:00 20.8 20.8 15.3 S 5.6 5.6 7.4 71 1012.8(-0.4/3h) -- -- -- --
01:00 21.0 21.0 14.4 ESE 5.6 7.4 13.0 66 1012.4(-0.3/3h) -- -- -- --
00:00 22.0 22.0 15.1 SSE 5.6 11.1 16.7 65 1012.8(0.1/3h) -- -- -- --

1 Coordinated Universal Time. Actuellement il est 10:00 locale et 08:00 UTC.

2 Le vent souffle depuis la direction indiquée vers la direction oposée.

3 Les rafales max. sont disponible 40 min après l'heure du relevé.

4 Pour les stations d'altitude (plus de 600m) le géopotentiel du niveau le plus proche de la pression obligatoire est indiqué.

5 Les stations disposant d'un diffuseur peuvent indiquer "trace". Cela signifie que des précipitations ont touchés le sol mais que la quantité est inférieure à 0.1 mm.

Copyright

Les données affichées sur cette page sont la propriété exclusive de Météo Suisse.

Récapitulatif de la journée
Température [°C] Vent [km/h] Ensoleillement4 [h] Precipitations totale5 [mm] Pression [Hpa]
Min1 Max.2 Moy.3 Max. Min Max.
18.8 23.5 15.4 38.9 0 h 0 min 0 1009.6 1018.7

1 Température minimale relevée entre 18:00 UTC la veille et 18:00 UTC le jour donné.

2 Température maximale relevée entre 06:00 UTC le jour donné et 06:00 UTC le lendemain.

3 Vent moyen de la journée basé sur les relevés horaires.

4 Ensoleillement en heures relevé entre 06:00 UTC la veille et 06:00 UTC le jour donné.

5 Précipitations totales tombées entre 06:00 UTC la jour donné et 06:00 UTC le lendemain.

Graphiques horaires